createdAt,value
2018-02-17T00:02:11.625Z,49.50
2018-02-17T00:04:41.465Z,48.03
2018-02-17T00:07:10.227Z,46.03
2018-02-17T00:09:39.080Z,44.27
2018-02-17T00:12:09.346Z,41.67
2018-02-17T00:14:39.469Z,39.03
2018-02-17T00:17:08.590Z,48.83
2018-02-17T00:19:38.274Z,37.80
2018-02-17T00:22:09.631Z,38.10
2018-02-17T00:24:39.267Z,63.67
2018-02-17T00:27:08.847Z,47.90
2018-02-17T00:29:37.534Z,44.20
2018-02-17T00:32:06.228Z,37.43
2018-02-17T00:34:36.036Z,40.10
2018-02-17T00:37:05.542Z,45.17
2018-02-17T00:39:35.459Z,46.07
2018-02-17T00:42:05.172Z,50.80
2018-02-17T00:44:34.680Z,42.60
2018-02-17T00:47:04.388Z,40.77
2018-02-17T00:49:34.209Z,35.83
2018-02-17T00:52:03.814Z,35.17
2018-02-17T00:54:32.604Z,33.97
2018-02-17T00:57:02.729Z,42.63
2018-02-17T00:59:31.827Z,46.03
2018-02-17T01:02:01.537Z,34.73
2018-02-17T01:04:30.629Z,33.40
2018-02-17T01:06:59.523Z,39.50
2018-02-17T01:09:28.563Z,33.87
2018-02-17T01:11:57.717Z,36.03
2018-02-17T01:14:27.991Z,36.60
2018-02-17T01:16:56.935Z,42.53
2018-02-17T01:19:26.646Z,40.83
2018-02-17T01:21:55.540Z,35.07
2018-02-17T01:24:24.227Z,33.57
2018-02-17T01:26:53.324Z,32.53
2018-02-17T01:29:21.944Z,42.27
2018-02-17T01:31:51.108Z,41.20
2018-02-17T01:34:19.996Z,40.93
2018-02-17T01:36:49.299Z,43.80
2018-02-17T01:39:18.805Z,31.92
2018-02-17T01:41:47.662Z,42.47
2018-02-17T01:44:17.714Z,36.23
2018-02-17T01:46:47.224Z,36.93
2018-02-17T01:49:15.907Z,48.63
2018-02-17T01:51:44.696Z,34.17
2018-02-17T01:54:13.742Z,37.47
2018-02-17T01:56:43.400Z,37.67
2018-02-17T01:59:12.293Z,44.30
2018-02-17T02:01:40.921Z,39.00
2018-02-17T02:04:11.741Z,45.13
2018-02-17T02:06:41.429Z,46.87
2018-02-17T02:09:11.751Z,38.43
2018-02-17T02:11:40.819Z,40.73
2018-02-17T02:14:09.738Z,61.63
2018-02-17T02:16:38.529Z,42.37
2018-02-17T02:19:08.206Z,44.30
2018-02-17T02:21:37.743Z,32.93
2018-02-17T02:24:07.046Z,55.47
2018-02-17T02:26:35.937Z,44.77
2018-02-17T02:29:04.827Z,47.47
2018-02-17T02:31:33.924Z,44.50
2018-02-17T02:34:03.020Z,50.67
2018-02-17T02:36:31.853Z,40.57
2018-02-17T02:39:00.602Z,50.27
2018-02-17T02:41:30.452Z,51.00
2018-02-17T02:43:59.613Z,47.00
2018-02-17T02:46:28.579Z,40.27
2018-02-17T02:48:57.393Z,44.97
2018-02-17T02:51:26.080Z,41.17
2018-02-17T02:53:55.057Z,39.90
2018-02-17T02:56:23.963Z,37.47
2018-02-17T02:58:53.571Z,32.60
2018-02-17T03:01:22.871Z,40.10
2018-02-17T03:03:51.560Z,41.87
2018-02-17T03:06:20.454Z,36.90
2018-02-17T03:08:49.346Z,42.93
2018-02-17T03:11:18.750Z,46.23
2018-02-17T03:13:47.532Z,41.07
2018-02-17T03:16:16.223Z,33.97
2018-02-17T03:18:45.217Z,45.73
2018-02-17T03:21:15.026Z,34.97
2018-02-17T03:23:44.741Z,31.27
2018-02-17T03:26:13.626Z,38.83
2018-02-17T03:28:42.419Z,41.97
2018-02-17T03:31:13.374Z,38.07
2018-02-17T03:33:42.352Z,40.00
2018-02-17T03:36:11.464Z,32.30
2018-02-17T03:38:40.967Z,37.27
2018-02-17T03:41:10.769Z,37.97
2018-02-17T03:43:39.916Z,40.07
2018-02-17T03:46:08.963Z,44.50
2018-02-17T03:48:38.008Z,37.23
2018-02-17T03:51:07.449Z,45.80
2018-02-17T03:53:36.301Z,37.47
2018-02-17T03:56:05.640Z,39.37
2018-02-17T03:58:36.689Z,31.37
2018-02-17T04:01:07.928Z,41.93
2018-02-17T04:03:36.962Z,38.70
2018-02-17T04:06:06.430Z,44.07
2018-02-17T04:08:36.342Z,39.40
2018-02-17T04:11:05.383Z,48.40
2018-02-17T04:13:35.465Z,34.63
2018-02-17T04:16:05.582Z,40.17
2018-02-17T04:18:35.352Z,38.83
2018-02-17T04:21:04.478Z,41.63
2018-02-17T04:23:33.427Z,32.93
2018-02-17T04:26:03.856Z,37.67
2018-02-17T04:28:34.417Z,33.13
2018-02-17T04:31:03.425Z,29.70
2018-02-17T04:33:32.868Z,29.50
2018-02-17T04:36:02.923Z,33.63
2018-02-17T04:38:32.126Z,29.50
2018-02-17T04:41:06.778Z,35.20
2018-02-17T04:43:53.870Z,26.30
2018-02-17T04:46:27.697Z,31.33
2018-02-17T04:49:00.032Z,37.60
2018-02-17T04:51:43.401Z,37.23
2018-02-17T04:54:17.815Z,30.20
2018-02-17T04:56:53.691Z,34.93
2018-02-17T04:59:26.924Z,36.70
2018-02-17T05:02:00.570Z,30.97
2018-02-17T05:04:30.238Z,36.80
2018-02-17T05:07:04.673Z,34.53
2018-02-17T05:09:34.967Z,37.40
2018-02-17T05:12:04.348Z,31.10
2018-02-17T05:14:37.328Z,28.23
2018-02-17T05:17:12.090Z,35.07
2018-02-17T05:19:43.900Z,26.77
2018-02-17T05:22:16.020Z,30.87
2018-02-17T05:24:47.968Z,30.07
2018-02-17T05:27:23.365Z,30.37
2018-02-17T05:30:03.118Z,38.57
2018-02-17T05:32:43.778Z,27.23
2018-02-17T05:35:18.301Z,34.63
2018-02-17T05:37:47.166Z,33.07
2018-02-17T05:40:25.911Z,40.83
2018-02-17T05:42:54.799Z,33.57
2018-02-17T05:45:23.639Z,36.37
2018-02-17T05:47:58.521Z,39.57
2018-02-17T05:50:28.853Z,34.67
2018-02-17T05:52:58.491Z,40.43
2018-02-17T05:55:27.240Z,35.43
2018-02-17T05:57:57.364Z,37.13
2018-02-17T06:00:26.866Z,30.73
2018-02-17T06:02:55.965Z,31.23
2018-02-17T06:05:25.260Z,29.27
2018-02-17T06:07:54.574Z,31.13
2018-02-17T06:10:24.067Z,45.67
2018-02-17T06:12:53.571Z,34.63
2018-02-17T06:15:22.873Z,35.37
2018-02-17T06:17:51.562Z,35.73
2018-02-17T06:20:21.063Z,30.60
2018-02-17T06:22:49.751Z,38.87
2018-02-17T06:25:18.536Z,32.87
2018-02-17T06:27:48.450Z,30.70
2018-02-17T06:30:17.401Z,34.87
2018-02-17T06:32:46.539Z,33.40
2018-02-17T06:35:16.048Z,36.20
2018-02-17T06:37:45.652Z,34.23
2018-02-17T06:40:14.481Z,33.00
2018-02-17T06:42:43.997Z,37.13
2018-02-17T06:45:15.039Z,30.33
2018-02-17T06:47:45.310Z,34.07
2018-02-17T06:50:15.432Z,31.48
2018-02-17T06:52:44.324Z,42.47
2018-02-17T06:55:13.784Z,31.50
2018-02-17T06:57:42.802Z,27.13
2018-02-17T07:00:12.228Z,29.73
2018-02-17T07:02:41.731Z,39.57
2018-02-17T07:05:11.235Z,27.73
2018-02-17T07:07:41.150Z,33.37
2018-02-17T07:10:10.451Z,25.30
2018-02-17T07:12:39.957Z,26.43
2018-02-17T07:15:09.461Z,35.67
2018-02-17T07:17:38.761Z,24.53
2018-02-17T07:20:08.062Z,31.50
2018-02-17T07:22:38.084Z,28.50
2018-02-17T07:25:07.380Z,28.33
2018-02-17T07:27:36.578Z,29.20
2018-02-17T07:30:06.186Z,38.37
2018-02-17T07:32:36.109Z,26.60
2018-02-17T07:35:05.658Z,31.27
2018-02-17T07:37:34.842Z,29.10
2018-02-17T07:40:05.184Z,33.20
2018-02-17T07:42:35.124Z,29.47
2018-02-17T07:45:04.061Z,29.33
2018-02-17T07:47:33.337Z,27.47
2018-02-17T07:50:03.047Z,30.23
2018-02-17T07:52:33.373Z,32.27
2018-02-17T07:55:02.474Z,21.87
2018-02-17T07:57:32.152Z,26.53
2018-02-17T08:00:01.378Z,28.30
2018-02-17T08:02:31.509Z,28.97
2018-02-17T08:05:00.798Z,34.93
2018-02-17T08:07:30.250Z,30.53
2018-02-17T08:09:59.810Z,29.53
2018-02-17T08:12:29.805Z,40.27
2018-02-17T08:14:59.645Z,24.23
2018-02-17T08:17:29.352Z,28.00
2018-02-17T08:19:58.947Z,25.67
2018-02-17T08:22:29.178Z,24.67
2018-02-17T08:24:58.482Z,20.30
2018-02-17T08:27:28.198Z,22.70
2018-02-17T08:29:57.699Z,27.20
2018-02-17T08:32:26.732Z,28.17
2018-02-17T08:34:56.604Z,17.27
2018-02-17T08:37:25.701Z,19.50
2018-02-17T08:39:54.804Z,20.63
2018-02-17T08:42:24.869Z,19.23
2018-02-17T08:44:54.178Z,26.27
2018-02-17T08:47:23.621Z,20.37
2018-02-17T08:49:53.131Z,22.60
2018-02-17T08:52:22.638Z,22.30
2018-02-17T08:54:51.525Z,22.90
2018-02-17T08:57:20.652Z,22.70
2018-02-17T08:59:50.682Z,19.23
2018-02-17T09:02:20.655Z,18.30
2018-02-17T09:04:50.159Z,24.60
2018-02-17T09:07:19.668Z,26.00
2018-02-17T09:09:48.760Z,30.27
2018-02-17T09:12:18.352Z,26.83
2018-02-17T09:14:48.180Z,23.93
2018-02-17T09:17:17.685Z,27.30
2018-02-17T09:19:47.701Z,30.47
2018-02-17T09:22:17.794Z,23.45
2018-02-17T09:24:46.926Z,25.60
2018-02-17T09:27:17.455Z,37.00
2018-02-17T09:29:47.427Z,27.60
2018-02-17T09:32:17.280Z,29.77
2018-02-17T09:34:46.784Z,28.20
2018-02-17T09:37:18.346Z,27.27
2018-02-17T09:39:47.025Z,26.70
2018-02-17T09:42:19.195Z,30.90
2018-02-17T09:44:49.002Z,31.27
2018-02-17T09:47:18.614Z,19.40
2018-02-17T09:49:47.300Z,28.20
2018-02-17T09:52:16.804Z,27.50
2018-02-17T09:54:46.516Z,34.40
2018-02-17T09:57:16.225Z,40.97
2018-02-17T09:59:45.732Z,28.60
2018-02-17T10:02:15.249Z,28.13
2018-02-17T10:04:45.560Z,26.30
2018-02-17T10:07:16.098Z,34.87
2018-02-17T10:09:46.627Z,22.47
2018-02-17T10:12:16.538Z,27.67
2018-02-17T10:14:46.255Z,24.90
2018-02-17T10:17:16.393Z,28.73
2018-02-17T10:19:46.485Z,28.37
2018-02-17T10:22:17.130Z,21.20
2018-02-17T10:24:46.727Z,27.87
2018-02-17T10:27:16.746Z,22.93
2018-02-17T10:29:46.661Z,25.27
2018-02-17T10:32:16.369Z,20.47
2018-02-17T10:34:46.283Z,22.90
2018-02-17T10:37:15.999Z,26.20
2018-02-17T10:39:46.010Z,26.63
2018-02-17T10:42:15.110Z,29.97
2018-02-17T10:44:44.969Z,26.20
2018-02-17T10:47:14.684Z,24.33
2018-02-17T10:49:44.444Z,29.47
2018-02-17T10:52:13.948Z,22.53
2018-02-17T10:54:43.251Z,32.73
2018-02-17T10:57:13.576Z,30.10
2018-02-17T10:59:44.009Z,28.23
2018-02-17T11:02:13.307Z,43.43
2018-02-17T11:04:43.632Z,28.67
2018-02-17T11:07:12.631Z,38.03
2018-02-17T11:09:42.555Z,32.03
2018-02-17T11:12:11.670Z,27.07
2018-02-17T11:14:41.238Z,35.13
2018-02-17T11:17:11.155Z,29.23
2018-02-17T11:19:41.068Z,26.87
2018-02-17T11:22:11.813Z,28.40
2018-02-17T11:24:41.819Z,35.67
2018-02-17T11:27:11.117Z,28.40
2018-02-17T11:35:36.779Z,37.37
2018-02-17T11:38:06.286Z,26.83
2018-02-17T11:40:35.995Z,29.43
2018-02-17T11:43:05.498Z,26.70
2018-02-17T11:45:36.133Z,22.93
2018-02-17T11:48:06.045Z,26.63
2018-02-17T11:50:35.941Z,30.87
2018-02-17T11:53:04.843Z,25.80
2018-02-17T11:55:35.275Z,29.65
2018-02-17T11:58:05.498Z,36.50
2018-02-17T12:00:34.602Z,28.37
2018-02-17T12:03:04.306Z,29.83
2018-02-17T12:05:33.824Z,30.53
2018-02-17T12:08:06.875Z,36.30
2018-02-17T12:10:35.893Z,31.83
2018-02-17T12:13:06.216Z,34.40
2018-02-17T12:15:35.467Z,35.87
2018-02-17T12:18:05.758Z,24.63
2018-02-17T12:20:35.628Z,36.63
2018-02-17T12:23:05.149Z,36.90
2018-02-17T12:25:35.758Z,34.90
2018-02-17T12:28:05.513Z,31.70
2018-02-17T12:30:35.831Z,32.77
2018-02-17T12:33:05.743Z,36.20
2018-02-17T12:35:34.652Z,33.70
2018-02-17T12:38:04.349Z,39.73
2018-02-17T12:40:34.056Z,43.80
2018-02-17T12:43:03.562Z,30.87
2018-02-17T12:45:32.452Z,45.70
2018-02-17T12:48:01.958Z,40.10
2018-02-17T12:50:31.877Z,34.07
2018-02-17T12:53:01.380Z,34.90
2018-02-17T12:55:31.291Z,46.53
2018-02-17T12:58:01.003Z,43.20
2018-02-17T13:00:30.916Z,42.63
2018-02-17T13:03:00.895Z,45.60
2018-02-17T13:05:43.855Z,35.00
2018-02-17T13:08:13.975Z,40.77
2018-02-17T13:10:42.683Z,44.70
2018-02-17T13:13:11.961Z,34.70
2018-02-17T13:15:42.089Z,35.90
2018-02-17T13:18:11.181Z,36.17
2018-02-17T13:20:40.480Z,32.67
2018-02-17T13:23:10.596Z,35.70
2018-02-17T13:25:40.578Z,32.57
2018-02-17T13:28:11.045Z,30.43
2018-02-17T13:30:39.737Z,28.40
2018-02-17T13:33:09.036Z,34.37
2018-02-17T13:35:38.124Z,41.80
2018-02-17T13:38:07.631Z,47.70
2018-02-17T13:40:37.136Z,38.33
2018-02-17T13:43:07.357Z,29.10
2018-02-17T13:45:36.151Z,32.63
2018-02-17T13:48:05.656Z,34.57
2018-02-17T13:50:35.982Z,35.73
2018-02-17T13:53:04.662Z,41.13
2018-02-17T13:55:33.863Z,31.47
2018-02-17T13:58:02.650Z,36.53
2018-02-17T14:00:32.973Z,40.33
2018-02-17T14:03:02.480Z,42.23
2018-02-17T14:05:31.584Z,36.72
2018-02-17T14:08:01.084Z,34.80
2018-02-17T14:10:31.819Z,35.07
2018-02-17T14:13:01.118Z,32.63
2018-02-17T14:15:30.421Z,37.70
2018-02-17T14:17:59.723Z,39.30
2018-02-17T14:20:28.815Z,36.63
2018-02-17T14:22:58.527Z,47.87
2018-02-17T14:25:27.417Z,43.57
2018-02-17T14:27:56.513Z,29.53
2018-02-17T14:30:26.235Z,37.40
2018-02-17T14:32:55.942Z,28.37
2018-02-17T14:35:26.102Z,36.30
2018-02-17T14:37:55.760Z,30.27
2018-02-17T14:40:24.909Z,33.87
2018-02-17T14:42:54.259Z,33.17
2018-02-17T14:45:23.566Z,32.47
2018-02-17T14:47:52.657Z,26.57
2018-02-17T14:50:22.143Z,25.60
2018-02-17T14:52:51.464Z,23.80
2018-02-17T14:55:20.766Z,29.93
2018-02-17T14:57:50.687Z,26.80
2018-02-17T15:00:19.806Z,22.20
2018-02-17T15:02:49.485Z,31.40
2018-02-17T15:05:18.789Z,40.60
2018-02-17T15:07:48.155Z,37.73
2018-02-17T15:10:17.751Z,21.97
2018-02-17T15:12:46.687Z,30.13
2018-02-17T15:15:16.601Z,21.43
2018-02-17T15:17:45.708Z,20.67
2018-02-17T15:20:14.795Z,21.17
2018-02-17T15:22:43.889Z,24.70
2018-02-17T15:25:12.778Z,20.70
2018-02-17T15:27:41.773Z,26.40
2018-02-17T15:30:11.077Z,33.87
2018-02-17T15:32:40.390Z,32.37
2018-02-17T15:35:09.470Z,22.70
2018-02-17T15:37:38.567Z,29.27
2018-02-17T15:40:08.555Z,40.87
2018-02-17T15:42:38.189Z,30.40
2018-02-17T15:45:08.518Z,23.37
2018-02-17T15:47:37.838Z,18.83
2018-02-17T15:50:07.116Z,26.23
2018-02-17T15:52:36.623Z,18.43
2018-02-17T15:55:05.924Z,17.50
2018-02-17T15:57:35.837Z,17.77
2018-02-17T16:00:05.421Z,16.37
2018-02-17T16:02:35.466Z,13.88
2018-02-17T16:05:05.178Z,13.00
2018-02-17T16:07:34.683Z,15.57
2018-02-17T16:10:04.186Z,12.37
2018-02-17T16:12:33.495Z,13.23
2018-02-17T16:15:02.956Z,13.47
2018-02-17T16:17:32.231Z,13.40
2018-02-17T16:20:01.797Z,19.30
2018-02-17T16:22:31.097Z,11.50
2018-02-17T16:24:59.892Z,21.33
2018-02-17T16:27:29.494Z,26.57
2018-02-17T16:29:58.691Z,17.30
2018-02-17T16:32:28.166Z,11.63
2018-02-17T16:34:57.019Z,9.93
2018-02-17T16:37:27.003Z,8.37
2018-02-17T16:39:56.610Z,18.20
2018-02-17T16:42:25.501Z,14.80
2018-02-17T16:44:54.954Z,9.67
2018-02-17T16:47:23.699Z,8.30
2018-02-17T16:49:52.896Z,14.03
2018-02-17T16:52:22.269Z,14.00
2018-02-17T16:54:52.634Z,10.50
2018-02-17T16:57:22.566Z,15.23
2018-02-17T16:59:51.846Z,12.40
2018-02-17T17:02:21.036Z,7.47
2018-02-17T17:04:50.244Z,8.00
2018-02-17T17:07:20.560Z,8.93
2018-02-17T17:09:50.606Z,19.67
2018-02-17T17:12:20.030Z,10.80
2018-02-17T17:14:49.178Z,7.60
2018-02-17T17:17:19.193Z,5.63
2018-02-17T17:19:48.795Z,11.20
2018-02-17T17:22:19.125Z,8.80
2018-02-17T17:24:48.021Z,5.93
2018-02-17T17:27:17.318Z,4.37
2018-02-17T17:29:47.233Z,8.47
2018-02-17T17:32:17.148Z,4.90
2018-02-17T17:34:47.063Z,3.30
2018-02-17T17:37:17.082Z,4.20
2018-02-17T17:39:46.595Z,3.00
2018-02-17T17:42:17.222Z,5.00
2018-02-17T17:44:46.724Z,6.27
2018-02-17T17:47:16.236Z,4.00
2018-02-17T17:49:45.734Z,3.73
2018-02-17T17:52:15.657Z,4.47
2018-02-17T17:54:45.156Z,4.60
2018-02-17T17:57:15.174Z,7.57
2018-02-17T17:59:47.716Z,3.13
2018-02-17T18:02:16.997Z,4.43
2018-02-17T18:04:45.947Z,4.57
2018-02-17T18:07:15.915Z,6.57
2018-02-17T18:09:44.909Z,2.30
2018-02-17T18:12:14.411Z,3.93
2018-02-17T18:14:44.067Z,6.13
2018-02-17T18:17:13.160Z,2.70
2018-02-17T18:19:42.655Z,4.20
2018-02-17T18:22:12.991Z,8.80
2018-02-17T18:24:42.703Z,5.17
2018-02-17T18:27:12.721Z,6.40
2018-02-17T18:29:42.082Z,2.77
2018-02-17T18:32:11.575Z,4.73
2018-02-17T18:34:41.381Z,3.50
2018-02-17T18:37:11.731Z,8.63
2018-02-17T18:39:41.203Z,5.37
2018-02-17T18:42:11.241Z,5.33
2018-02-17T18:44:41.304Z,4.87
2018-02-17T18:47:11.425Z,8.03
2018-02-17T18:49:40.525Z,3.10
2018-02-17T18:52:10.451Z,7.63
2018-02-17T18:54:39.941Z,4.23
2018-02-17T18:57:09.455Z,8.30
2018-02-17T18:59:38.748Z,4.63
2018-02-17T19:02:08.196Z,3.53
2018-02-17T19:04:38.453Z,4.93
2018-02-17T19:07:07.774Z,3.40
2018-02-17T19:09:37.897Z,11.33
2018-02-17T19:12:08.239Z,15.23
2018-02-17T19:14:38.134Z,10.30
2018-02-17T19:17:07.650Z,8.63
2018-02-17T19:19:37.555Z,2.50
2018-02-17T19:22:07.472Z,3.20
2018-02-17T19:24:37.591Z,2.47
2018-02-17T19:27:07.506Z,7.57
2018-02-17T19:29:36.984Z,5.70
2018-02-17T19:32:06.150Z,4.00
2018-02-17T19:34:35.371Z,7.50
2018-02-17T19:37:04.489Z,5.47
2018-02-17T19:39:34.727Z,2.72
2018-02-17T19:42:03.942Z,4.37
2018-02-17T19:44:33.543Z,14.50
2018-02-17T19:47:03.222Z,6.03
2018-02-17T19:49:33.161Z,5.33
2018-02-17T19:52:02.670Z,5.40
2018-02-17T19:54:32.168Z,6.77
2018-02-17T19:57:02.043Z,5.47
2018-02-17T19:59:31.302Z,7.43
2018-02-17T20:02:00.895Z,3.33
2018-02-17T20:04:30.394Z,9.20
2018-02-17T20:06:59.491Z,10.00
2018-02-17T20:09:28.996Z,5.40
2018-02-17T20:11:57.682Z,2.90
2018-02-17T20:14:28.357Z,3.97
2018-02-17T20:16:58.084Z,4.53
2018-02-17T20:19:27.228Z,7.33
2018-02-17T20:21:56.937Z,5.93
2018-02-17T20:24:27.064Z,21.27
2018-02-17T20:26:57.377Z,10.13
2018-02-17T20:29:27.906Z,10.90
2018-02-17T20:31:56.592Z,7.97
2018-02-17T20:34:27.506Z,3.60
2018-02-17T20:36:56.527Z,4.27
2018-02-17T20:39:26.449Z,6.23
2018-02-17T20:41:55.753Z,10.50
2018-02-17T20:44:26.330Z,5.00
2018-02-17T20:46:55.443Z,6.77
2018-02-17T20:49:25.818Z,2.37
2018-02-17T20:51:55.315Z,7.10
2018-02-17T20:54:26.223Z,2.50
2018-02-17T20:56:55.140Z,6.07
2018-02-17T20:59:26.175Z,7.53
2018-02-17T21:01:55.399Z,6.33
2018-02-17T21:04:25.693Z,10.10
2018-02-17T21:06:54.795Z,5.97
2018-02-17T21:09:23.492Z,7.87
2018-02-17T21:11:52.776Z,11.63
2018-02-17T21:14:21.974Z,8.40
2018-02-17T21:16:51.069Z,6.90
2018-02-17T21:19:20.370Z,4.03
2018-02-17T21:21:49.274Z,8.60
2018-02-17T21:24:21.021Z,9.00
2018-02-17T21:26:50.532Z,18.33
2018-02-17T21:29:19.624Z,6.53
2018-02-17T21:31:49.949Z,8.23
2018-02-17T21:34:19.259Z,5.70
2018-02-17T21:36:48.419Z,10.67
2018-02-17T21:39:18.053Z,3.93
2018-02-17T21:41:47.356Z,38.83
2018-02-17T21:44:16.527Z,8.03
2018-02-17T21:46:47.578Z,12.10
2018-02-17T21:49:17.778Z,4.50
2018-02-17T21:51:48.039Z,17.60
2018-02-17T21:54:17.580Z,7.23
2018-02-17T21:56:47.257Z,5.20
2018-02-17T21:59:17.490Z,7.20
2018-02-17T22:01:46.420Z,12.50
2018-02-17T22:04:15.791Z,4.67
2018-02-17T22:06:44.867Z,3.93
2018-02-17T22:09:13.974Z,5.90
2018-02-17T22:11:43.672Z,10.77
2018-02-17T22:17:10.380Z,3.57
2018-02-17T22:19:40.454Z,3.27
2018-02-17T22:22:10.262Z,4.50
2018-02-17T22:24:40.021Z,6.93
2018-02-17T22:27:10.461Z,2.60
2018-02-17T22:29:39.822Z,4.97
2018-02-17T22:32:08.900Z,3.00
2018-02-17T22:34:38.354Z,3.00
2018-02-17T22:37:07.963Z,18.93
2018-02-17T22:39:37.702Z,4.28
2018-02-17T22:42:06.824Z,16.27
2018-02-17T22:44:36.227Z,2.30
2018-02-17T22:47:05.103Z,2.47
2018-02-17T22:49:34.420Z,2.53
2018-02-17T22:52:03.659Z,8.93
2018-02-17T22:54:32.761Z,6.63
2018-02-17T22:57:02.946Z,4.13
2018-02-17T22:59:32.709Z,6.07
2018-02-17T23:02:02.564Z,9.33
2018-02-17T23:04:31.768Z,6.03
2018-02-17T23:07:01.384Z,4.83
2018-02-17T23:09:31.181Z,6.20
2018-02-17T23:12:00.848Z,15.80
2018-02-17T23:14:31.937Z,3.30
2018-02-17T23:17:02.318Z,6.80
2018-02-17T23:19:32.063Z,4.10
2018-02-17T23:22:01.742Z,2.87
2018-02-17T23:24:32.753Z,2.42
2018-02-17T23:27:02.802Z,3.37
2018-02-17T23:29:31.698Z,5.47
2018-02-17T23:32:01.845Z,2.37
2018-02-17T23:34:32.854Z,5.70
2018-02-17T23:37:01.744Z,5.53
2018-02-17T23:39:32.221Z,10.00
2018-02-17T23:42:01.389Z,3.07
2018-02-17T23:44:31.935Z,5.07
2018-02-17T23:47:02.475Z,8.10
2018-02-17T23:49:31.844Z,3.60
2018-02-17T23:52:11.322Z,6.50
2018-02-17T23:54:41.410Z,4.53
2018-02-17T23:57:10.829Z,7.60
2018-02-17T23:59:40.311Z,6.30
